createdAt,value
2018-07-12T00:02:36.324Z,99.99
2018-07-12T00:03:36.311Z,99.99
2018-07-12T00:04:36.136Z,99.99
2018-07-12T00:05:36.128Z,99.99
2018-07-12T00:06:35.965Z,99.99
2018-07-12T00:09:17.821Z,99.99
2018-07-12T00:10:17.824Z,99.99
2018-07-12T00:11:17.630Z,99.99
2018-07-12T00:13:59.806Z,99.99
2018-07-12T00:30:57.867Z,99.99
2018-07-12T00:31:57.757Z,99.99
2018-07-12T00:32:57.690Z,99.99
2018-07-12T00:33:57.626Z,99.99
2018-07-12T00:34:57.548Z,99.99
2018-07-12T00:35:57.455Z,99.99
2018-07-12T00:36:57.374Z,99.99
2018-07-12T00:37:57.288Z,99.99
2018-07-12T00:38:57.221Z,99.99
2018-07-12T00:39:57.159Z,99.99
2018-07-12T00:40:57.055Z,99.99
2018-07-12T00:41:56.971Z,99.99
2018-07-12T00:42:56.901Z,99.99
2018-07-12T00:43:56.826Z,99.99
2018-07-12T00:44:56.776Z,99.99
2018-07-12T00:45:56.655Z,99.99
2018-07-12T00:46:56.583Z,99.99
2018-07-12T00:47:56.507Z,99.99
2018-07-12T00:48:56.455Z,99.99
2018-07-12T00:49:56.364Z,99.99
2018-07-12T00:50:56.280Z,99.99
2018-07-12T00:51:56.190Z,99.99
2018-07-12T00:52:56.113Z,99.99
2018-07-12T00:53:56.026Z,99.99
2018-07-12T00:54:55.987Z,99.99
2018-07-12T00:55:55.891Z,99.99
2018-07-12T00:56:55.801Z,99.99
2018-07-12T00:57:55.711Z,99.99
2018-07-12T01:00:37.813Z,99.99
2018-07-12T01:01:37.723Z,99.99
2018-07-12T01:02:37.638Z,99.99
2018-07-12T01:03:37.580Z,99.99
2018-07-12T01:04:37.484Z,99.99
2018-07-12T01:05:37.430Z,99.99
2018-07-12T01:06:37.339Z,99.99
2018-07-12T01:07:37.288Z,99.99
2018-07-12T01:08:37.173Z,99.99
2018-07-12T01:09:37.105Z,99.99
2018-07-12T01:10:37.038Z,99.99
2018-07-12T01:11:36.958Z,99.99
2018-07-12T01:12:36.876Z,99.99
2018-07-12T01:13:36.778Z,99.99
2018-07-12T01:14:36.695Z,99.99
2018-07-12T01:15:36.628Z,99.99
2018-07-12T01:16:36.564Z,99.99
2018-07-12T01:17:36.484Z,99.99
2018-07-12T01:18:36.396Z,99.99
2018-07-12T01:19:36.308Z,99.99
2018-07-12T01:20:36.219Z,99.99
2018-07-12T01:21:36.181Z,99.99
2018-07-12T01:22:36.103Z,99.99
2018-07-12T01:23:36.003Z,99.99
2018-07-12T01:24:35.919Z,99.99
2018-07-12T01:25:35.837Z,99.99
2018-07-12T01:26:35.849Z,99.99
2018-07-12T01:27:35.728Z,99.99
2018-07-12T01:28:35.599Z,99.99
2018-07-12T01:29:35.518Z,99.99
2018-07-12T01:30:35.442Z,99.99
2018-07-12T01:31:35.372Z,99.99
2018-07-12T01:32:35.317Z,99.99
2018-07-12T01:35:17.342Z,99.99
2018-07-12T01:37:59.329Z,99.99
2018-07-12T01:38:59.241Z,99.99
2018-07-12T01:39:59.160Z,99.99
2018-07-12T01:40:59.080Z,99.99
2018-07-12T01:41:59.022Z,99.99
2018-07-12T01:42:58.924Z,99.99
2018-07-12T01:43:58.852Z,99.99
2018-07-12T01:44:58.777Z,99.99
2018-07-12T01:45:58.684Z,99.99
2018-07-12T01:46:58.629Z,99.99
2018-07-12T01:47:58.565Z,99.99
2018-07-12T01:48:58.449Z,99.99
2018-07-12T01:49:58.363Z,99.99
2018-07-12T01:50:58.287Z,99.99
2018-07-12T01:51:58.214Z,99.99
2018-07-12T01:52:58.141Z,99.99
2018-07-12T01:53:58.064Z,99.99
2018-07-12T01:56:22.822Z,99.99
2018-07-12T01:57:22.757Z,99.99
2018-07-12T01:58:22.696Z,99.99
2018-07-12T01:59:22.591Z,99.99
2018-07-12T02:00:22.500Z,99.99
2018-07-12T02:01:22.427Z,99.99
2018-07-12T02:02:22.405Z,99.99
2018-07-12T02:03:22.276Z,99.99
2018-07-12T02:04:22.401Z,99.99
2018-07-12T02:05:22.120Z,99.99
2018-07-12T02:06:22.029Z,99.99
2018-07-12T02:07:21.972Z,99.99
2018-07-12T02:08:21.869Z,99.99
2018-07-12T02:09:21.840Z,99.99
2018-07-12T02:10:21.713Z,99.99
2018-07-12T02:11:21.645Z,99.99
2018-07-12T02:12:21.583Z,99.99
2018-07-12T02:13:21.482Z,99.99
2018-07-12T02:14:21.433Z,99.99
2018-07-12T02:15:21.329Z,99.99
2018-07-12T02:16:21.241Z,99.99
2018-07-12T02:19:03.379Z,99.99
2018-07-12T02:20:03.248Z,99.99
2018-07-12T02:21:03.168Z,99.99
2018-07-12T02:22:03.098Z,99.99
2018-07-12T02:23:02.998Z,99.99
2018-07-12T02:24:02.937Z,99.99
2018-07-12T02:25:02.861Z,99.99
2018-07-12T02:26:02.812Z,99.99
2018-07-12T02:27:02.783Z,99.99
2018-07-12T02:28:02.620Z,99.99
2018-07-12T02:29:02.574Z,99.99
2018-07-12T02:30:02.477Z,99.99
2018-07-12T02:31:02.383Z,99.99
2018-07-12T02:32:02.303Z,99.99
2018-07-12T02:33:02.225Z,99.99
2018-07-12T02:35:44.353Z,99.99
2018-07-12T02:36:44.272Z,99.99
2018-07-12T02:37:44.173Z,99.99
2018-07-12T02:38:44.104Z,99.99
2018-07-12T02:39:44.024Z,99.99
2018-07-12T02:40:43.935Z,99.99
2018-07-12T02:41:43.853Z,99.99
2018-07-12T02:42:43.788Z,99.99
2018-07-12T02:43:43.709Z,99.99
2018-07-12T02:44:43.641Z,99.99
2018-07-12T02:45:43.558Z,99.99
2018-07-12T02:48:25.868Z,99.99
2018-07-12T02:49:25.763Z,99.99
2018-07-12T02:50:25.673Z,99.99
2018-07-12T02:51:25.625Z,99.99
2018-07-12T02:52:25.517Z,99.99
2018-07-12T02:53:25.449Z,99.99
2018-07-12T02:54:25.352Z,99.99
2018-07-12T02:57:38.849Z,99.99
2018-07-12T03:00:20.864Z,99.99
2018-07-12T03:01:20.767Z,99.99
2018-07-12T03:02:20.694Z,99.99
2018-07-12T03:03:20.606Z,99.99
2018-07-12T03:04:20.527Z,99.99
2018-07-12T03:05:20.462Z,99.99
2018-07-12T03:06:20.377Z,99.99
2018-07-12T03:07:20.305Z,99.99
2018-07-12T03:08:20.206Z,99.99
2018-07-12T03:09:20.139Z,99.99
2018-07-12T03:10:20.056Z,99.99
2018-07-12T03:11:19.982Z,99.99
2018-07-12T03:12:19.896Z,99.99
2018-07-12T03:13:19.819Z,99.99
2018-07-12T03:14:19.730Z,99.99
2018-07-12T03:15:19.664Z,99.99
2018-07-12T03:16:19.615Z,99.99
2018-07-12T03:17:19.495Z,99.99
2018-07-12T03:18:19.410Z,99.99
2018-07-12T03:19:19.337Z,99.99
2018-07-12T03:20:19.257Z,99.99
2018-07-12T03:21:20.218Z,99.99
2018-07-12T03:22:19.085Z,99.99
2018-07-12T03:23:20.045Z,99.99
2018-07-12T03:24:18.947Z,99.99
2018-07-12T03:25:18.875Z,99.99
2018-07-12T03:26:18.770Z,99.99
2018-07-12T03:27:18.721Z,99.99
2018-07-12T03:28:18.653Z,99.99
2018-07-12T03:29:18.554Z,99.99
2018-07-12T03:30:18.462Z,99.99
2018-07-12T03:31:18.398Z,99.99
2018-07-12T03:32:18.308Z,99.99
2018-07-12T03:33:18.245Z,99.99
2018-07-12T03:34:18.161Z,99.99
2018-07-12T03:35:18.086Z,99.99
2018-07-12T03:36:17.981Z,99.99
2018-07-12T03:37:17.909Z,99.99
2018-07-12T03:38:17.858Z,99.99
2018-07-12T03:39:17.756Z,99.99
2018-07-12T03:40:17.680Z,99.99
2018-07-12T03:41:17.603Z,99.99
2018-07-12T03:42:17.512Z,99.99
2018-07-12T03:43:17.463Z,99.99
2018-07-12T03:44:17.354Z,99.99
2018-07-12T03:45:17.298Z,99.99
2018-07-12T03:46:17.197Z,99.99
2018-07-12T03:47:17.132Z,99.99
2018-07-12T03:48:17.060Z,99.99
2018-07-12T03:49:16.969Z,99.99
2018-07-12T03:50:16.898Z,99.99
2018-07-12T03:51:16.811Z,99.99
2018-07-12T03:52:16.718Z,99.99
2018-07-12T03:53:16.647Z,99.99
2018-07-12T03:54:16.573Z,99.99
2018-07-12T03:55:16.510Z,99.99
2018-07-12T03:56:16.403Z,99.99
2018-07-12T03:57:16.324Z,99.99
2018-07-12T03:58:16.245Z,99.99
2018-07-12T03:59:16.335Z,99.99
2018-07-12T04:00:16.115Z,99.99
2018-07-12T04:01:16.023Z,99.99
2018-07-12T04:02:15.922Z,99.99
2018-07-12T04:03:15.852Z,99.99
2018-07-12T04:04:15.864Z,99.99
2018-07-12T04:05:15.714Z,99.99
2018-07-12T04:06:15.610Z,99.99
2018-07-12T04:07:15.545Z,99.99
2018-07-12T04:08:15.448Z,99.99
2018-07-12T04:09:15.388Z,99.99
2018-07-12T04:10:15.326Z,99.99
2018-07-12T04:11:15.223Z,99.99
2018-07-12T04:12:15.139Z,99.99
2018-07-12T04:13:15.057Z,99.99
2018-07-12T04:14:14.998Z,99.99
2018-07-12T04:15:14.928Z,99.99
2018-07-12T04:16:14.812Z,99.99
2018-07-12T04:17:14.764Z,99.99
2018-07-12T04:18:14.652Z,99.99
2018-07-12T04:19:14.585Z,99.99
2018-07-12T04:20:14.542Z,99.99
2018-07-12T04:21:14.428Z,99.99
2018-07-12T04:22:14.349Z,99.99
2018-07-12T04:24:56.366Z,99.99
2018-07-12T04:25:56.318Z,99.99
2018-07-12T04:26:56.201Z,99.99
2018-07-12T04:27:56.125Z,99.99
2018-07-12T04:28:56.054Z,99.99
2018-07-12T04:29:55.986Z,99.99
2018-07-12T04:30:55.899Z,99.99
2018-07-12T04:33:37.860Z,99.99
2018-07-12T04:34:37.823Z,99.99
2018-07-12T04:35:37.914Z,99.99
2018-07-12T04:36:37.650Z,99.99
2018-07-12T04:37:37.572Z,99.99
2018-07-12T04:38:37.486Z,99.99
2018-07-12T04:39:37.381Z,99.99
2018-07-12T04:40:37.354Z,99.99
2018-07-12T04:41:37.248Z,99.99
2018-07-12T04:42:37.160Z,99.99
2018-07-12T04:43:37.071Z,99.99
2018-07-12T04:44:36.995Z,99.99
2018-07-12T04:45:36.917Z,99.99
2018-07-12T04:46:36.945Z,99.99
2018-07-12T04:47:36.756Z,99.99
2018-07-12T04:48:36.687Z,99.99
2018-07-12T04:49:36.602Z,99.99
2018-07-12T04:50:36.539Z,99.99
2018-07-12T04:51:36.445Z,99.99
2018-07-12T04:52:36.375Z,99.99
2018-07-12T04:53:36.277Z,99.99
2018-07-12T04:54:36.202Z,99.99
2018-07-12T04:55:36.117Z,99.99
2018-07-12T04:56:36.085Z,99.99
2018-07-12T04:57:35.970Z,99.99
2018-07-12T04:58:36.006Z,99.99
2018-07-12T04:59:35.802Z,99.99
2018-07-12T05:00:35.723Z,99.99
2018-07-12T05:01:35.666Z,99.99
2018-07-12T05:02:35.609Z,99.99
2018-07-12T05:03:35.491Z,99.99
2018-07-12T05:04:35.409Z,99.99
2018-07-12T05:05:35.338Z,99.99
2018-07-12T05:06:35.262Z,99.99
2018-07-12T05:07:35.176Z,99.99
2018-07-12T05:08:36.150Z,99.99
2018-07-12T05:09:35.009Z,99.99
2018-07-12T05:10:34.931Z,99.99
2018-07-12T05:11:34.862Z,99.99
2018-07-12T05:14:16.998Z,99.99
2018-07-12T05:15:16.799Z,99.99
2018-07-12T05:16:16.799Z,99.99
2018-07-12T05:17:17.655Z,99.99
2018-07-12T05:18:16.568Z,99.99
2018-07-12T05:19:16.560Z,99.99
2018-07-12T05:20:16.397Z,99.99
2018-07-12T05:21:16.343Z,99.99
2018-07-12T05:22:16.250Z,99.99
2018-07-12T05:24:58.392Z,99.99
2018-07-12T05:25:58.523Z,99.99
2018-07-12T05:26:58.217Z,99.99
2018-07-12T05:27:59.296Z,99.99
2018-07-12T05:28:58.088Z,99.99
2018-07-12T05:31:39.881Z,99.99
2018-07-12T05:32:40.239Z,99.99
2018-07-12T05:35:04.387Z,99.99
2018-07-12T05:53:20.194Z,99.99
2018-07-12T05:54:20.249Z,99.99
2018-07-12T06:00:01.595Z,99.99
2018-07-12T06:01:01.533Z,99.99
2018-07-12T06:03:43.406Z,99.99
2018-07-12T06:04:44.508Z,99.99
2018-07-12T06:05:43.267Z,99.99
2018-07-12T06:06:43.176Z,99.99
2018-07-12T06:07:43.094Z,99.99
2018-07-12T06:08:43.026Z,99.99
2018-07-12T06:09:42.984Z,99.99
2018-07-12T06:10:43.901Z,99.99
2018-07-12T06:11:42.773Z,99.99
2018-07-12T06:12:42.716Z,99.99
2018-07-12T06:13:42.617Z,99.99
2018-07-12T06:14:42.557Z,99.99
2018-07-12T06:15:42.493Z,99.99
2018-07-12T06:16:43.415Z,99.99
2018-07-12T06:17:42.321Z,99.99
2018-07-12T06:18:42.237Z,99.99
2018-07-12T06:19:42.167Z,99.99
2018-07-12T06:20:42.089Z,99.99
2018-07-12T06:21:42.021Z,99.99
2018-07-12T06:22:41.933Z,99.99
2018-07-12T06:23:41.840Z,99.99
2018-07-12T06:24:41.801Z,99.99
2018-07-12T06:25:41.683Z,99.99
2018-07-12T06:26:41.664Z,99.99
2018-07-12T06:27:41.530Z,99.99
2018-07-12T06:28:41.473Z,99.99
2018-07-12T06:29:41.385Z,99.99
2018-07-12T06:30:41.295Z,99.99
2018-07-12T06:31:41.226Z,99.99
2018-07-12T06:32:41.207Z,99.99
2018-07-12T06:33:41.266Z,99.99
2018-07-12T06:34:41.094Z,99.99
2018-07-12T06:35:41.112Z,99.99
2018-07-12T06:36:40.872Z,99.99
2018-07-12T06:37:40.757Z,99.99
2018-07-12T06:38:40.667Z,99.99
2018-07-12T06:39:40.590Z,99.99
2018-07-12T06:40:40.512Z,99.99
2018-07-12T06:41:40.498Z,99.99
2018-07-12T06:42:40.423Z,99.99
2018-07-12T06:43:40.282Z,99.99
2018-07-12T06:44:40.198Z,99.99
2018-07-12T06:45:40.116Z,99.99
2018-07-12T06:46:40.050Z,99.99
2018-07-12T06:47:39.991Z,99.99
2018-07-12T06:48:39.903Z,99.99
2018-07-12T06:49:39.818Z,99.99
2018-07-12T06:50:39.734Z,99.74
2018-07-12T06:51:39.689Z,98.34
2018-07-12T06:52:39.613Z,99.99
2018-07-12T06:53:39.517Z,99.99
2018-07-12T06:56:21.400Z,99.99
2018-07-12T06:57:21.350Z,99.99
2018-07-12T06:58:21.321Z,99.99
2018-07-12T06:59:21.193Z,99.99
2018-07-12T07:00:21.109Z,99.99
2018-07-12T07:03:03.530Z,98.87
2018-07-12T07:04:03.334Z,97.33
2018-07-12T07:05:03.245Z,97.96
2018-07-12T07:07:45.452Z,99.99
2018-07-12T07:08:45.332Z,99.99
2018-07-12T07:09:45.273Z,99.60
2018-07-12T07:12:27.446Z,94.77
2018-07-12T07:13:27.380Z,95.11
2018-07-12T07:14:27.267Z,98.87
2018-07-12T07:15:27.209Z,99.99
2018-07-12T07:16:27.118Z,99.99
2018-07-12T07:17:27.047Z,99.99
2018-07-12T07:18:27.154Z,99.99
2018-07-12T07:19:26.893Z,99.50
2018-07-12T07:20:26.826Z,97.57
2018-07-12T07:21:26.761Z,97.81
2018-07-12T07:22:26.648Z,96.46
2018-07-12T07:23:26.617Z,93.13
2018-07-12T07:24:26.503Z,89.79
2018-07-12T07:25:26.428Z,88.48
2018-07-12T07:26:26.353Z,86.01
2018-07-12T07:27:26.300Z,85.96
2018-07-12T07:28:26.223Z,84.90
2018-07-12T07:31:08.433Z,92.80
2018-07-12T07:32:08.374Z,95.69
2018-07-12T07:33:08.290Z,97.67
2018-07-12T07:34:08.604Z,94.77
2018-07-12T07:35:08.128Z,90.27
2018-07-12T07:36:08.057Z,87.90
2018-07-12T07:37:07.986Z,87.23
2018-07-12T07:38:07.899Z,86.21
2018-07-12T07:39:07.847Z,89.50
2018-07-12T07:40:07.766Z,88.81
2018-07-12T07:41:07.685Z,87.17
2018-07-12T07:43:49.978Z,81.58
2018-07-12T07:46:31.949Z,79.82
2018-07-12T07:47:31.859Z,77.34
2018-07-12T07:48:31.805Z,77.69
2018-07-12T07:49:31.725Z,77.04
2018-07-12T07:50:31.637Z,77.59
2018-07-12T07:53:25.920Z,78.27
2018-07-12T07:54:25.892Z,76.85
2018-07-12T07:55:25.802Z,76.11
2018-07-12T07:59:32.466Z,79.80
2018-07-12T08:00:32.385Z,80.11
2018-07-12T08:01:32.304Z,82.83
2018-07-12T08:02:32.226Z,85.49
2018-07-12T08:03:32.150Z,87.91
2018-07-12T08:04:32.107Z,87.77
2018-07-12T08:05:32.035Z,88.15
2018-07-12T08:06:31.941Z,88.93
2018-07-12T08:07:31.862Z,89.85
2018-07-12T08:08:31.794Z,89.51
2018-07-12T08:09:31.726Z,87.37
2018-07-12T08:10:31.671Z,86.65
2018-07-12T08:11:31.578Z,88.68
2018-07-12T08:12:31.503Z,88.20
2018-07-12T08:13:31.426Z,88.29
2018-07-12T08:16:13.496Z,88.92
2018-07-12T08:18:55.442Z,81.64
2018-07-12T08:19:55.373Z,79.39
2018-07-12T08:20:55.309Z,78.91
2018-07-12T08:21:55.243Z,78.42
2018-07-12T08:22:55.147Z,79.02
2018-07-12T08:23:55.185Z,79.50
2018-07-12T08:24:55.002Z,78.58
2018-07-12T08:25:54.968Z,78.00
2018-07-12T08:26:54.891Z,79.50
2018-07-12T08:29:36.939Z,83.49
2018-07-12T08:30:36.915Z,83.73
2018-07-12T08:31:36.821Z,80.03
2018-07-12T08:32:36.752Z,78.61
2018-07-12T08:33:36.661Z,78.07
2018-07-12T08:34:36.608Z,76.65
2018-07-12T08:35:36.517Z,74.60
2018-07-12T08:36:36.480Z,73.08
2018-07-12T08:37:36.370Z,71.64
2018-07-12T08:38:36.305Z,74.45
2018-07-12T08:39:36.242Z,75.90
2018-07-12T08:40:36.214Z,73.36
2018-07-12T08:41:36.111Z,72.74
2018-07-12T08:44:17.947Z,75.59
2018-07-12T08:45:17.890Z,73.58
2018-07-12T08:46:17.849Z,72.23
2018-07-12T08:47:18.762Z,72.36
2018-07-12T08:48:17.687Z,71.97
2018-07-12T08:49:17.594Z,71.10
2018-07-12T08:50:17.542Z,74.04
2018-07-12T08:51:17.484Z,75.45
2018-07-12T08:52:17.449Z,76.93
2018-07-12T08:54:59.456Z,78.74
2018-07-12T08:57:41.530Z,78.29
2018-07-12T08:58:41.387Z,76.39
2018-07-12T08:59:41.385Z,75.51
2018-07-12T09:02:23.490Z,74.27
2018-07-12T09:03:23.460Z,72.20
2018-07-12T09:04:23.341Z,70.78
2018-07-12T09:05:23.258Z,71.78
2018-07-12T09:06:23.192Z,72.75
2018-07-12T09:07:23.143Z,72.01
2018-07-12T09:08:23.059Z,72.49
2018-07-12T09:11:04.955Z,71.23
2018-07-12T09:12:04.899Z,70.26
2018-07-12T09:13:04.857Z,69.45
2018-07-12T09:14:04.777Z,69.84
2018-07-12T09:15:04.683Z,71.62
2018-07-12T09:16:04.656Z,70.39
2018-07-12T09:17:04.548Z,68.77
2018-07-12T09:18:04.516Z,68.09
2018-07-12T09:19:04.412Z,70.32
2018-07-12T09:20:04.358Z,71.16
2018-07-12T09:21:04.279Z,72.87
2018-07-12T09:22:04.233Z,72.67
2018-07-12T09:23:04.172Z,71.23
2018-07-12T09:24:04.103Z,70.13
2018-07-12T09:25:04.000Z,68.64
2018-07-12T09:26:03.966Z,67.47
2018-07-12T09:27:03.871Z,70.83
2018-07-12T09:29:45.993Z,75.54
2018-07-12T09:30:45.929Z,75.87
2018-07-12T09:31:45.828Z,74.49
2018-07-12T09:34:28.066Z,70.13
2018-07-12T09:35:27.967Z,68.45
2018-07-12T09:36:27.858Z,66.37
2018-07-12T09:37:27.775Z,67.67
2018-07-12T09:38:27.741Z,68.15
2018-07-12T09:39:29.623Z,68.44
2018-07-12T09:40:27.579Z,68.12
2018-07-12T09:43:09.475Z,70.81
2018-07-12T09:44:09.431Z,69.64
2018-07-12T09:45:09.342Z,68.44
2018-07-12T09:46:09.299Z,68.80
2018-07-12T09:47:09.224Z,70.77
2018-07-12T09:48:09.131Z,72.25
2018-07-12T09:49:09.162Z,75.34
2018-07-12T09:50:09.022Z,77.19
2018-07-12T09:51:08.929Z,74.97
2018-07-12T09:52:08.920Z,72.77
2018-07-12T09:53:08.788Z,71.68
2018-07-12T09:54:08.736Z,69.81
2018-07-12T09:55:08.663Z,67.25
2018-07-12T09:56:08.731Z,65.66
2018-07-12T09:57:08.548Z,65.95
2018-07-12T09:59:50.495Z,64.13
2018-07-12T10:00:50.432Z,65.56
2018-07-12T10:01:50.332Z,68.41
2018-07-12T10:02:50.323Z,68.99
2018-07-12T10:03:50.203Z,69.45
2018-07-12T10:04:50.162Z,72.09
2018-07-12T10:05:50.098Z,72.80
2018-07-12T10:08:32.012Z,77.19
2018-07-12T10:09:31.934Z,76.46
2018-07-12T10:10:31.882Z,76.99
2018-07-12T10:11:32.829Z,75.42
2018-07-12T10:12:31.738Z,74.52
2018-07-12T10:13:31.654Z,72.94
2018-07-12T10:14:31.581Z,71.23
2018-07-12T10:17:13.536Z,66.24
2018-07-12T10:19:55.559Z,62.73
2018-07-12T10:20:55.437Z,63.75
2018-07-12T10:21:55.362Z,65.69
2018-07-12T10:22:55.324Z,66.31
2018-07-12T10:23:55.360Z,67.96
2018-07-12T10:26:37.491Z,66.31
2018-07-12T10:27:37.483Z,64.72
2018-07-12T10:28:37.392Z,64.69
2018-07-12T10:29:37.304Z,63.22
2018-07-12T10:30:37.233Z,62.41
2018-07-12T10:31:37.172Z,65.92
2018-07-12T10:32:37.090Z,66.53
2018-07-12T10:33:37.056Z,69.28
2018-07-12T10:34:36.969Z,72.41
2018-07-12T10:35:36.906Z,73.09
2018-07-12T10:36:36.867Z,72.41
2018-07-12T10:37:36.760Z,72.51
2018-07-12T10:38:36.720Z,73.54
2018-07-12T10:39:36.647Z,73.79
2018-07-12T10:40:36.561Z,75.15
2018-07-12T10:41:36.502Z,72.58
2018-07-12T10:42:36.435Z,69.22
2018-07-12T10:43:36.341Z,69.54
2018-07-12T10:44:36.319Z,67.57
2018-07-12T10:45:36.206Z,67.11
2018-07-12T10:46:36.138Z,66.89
2018-07-12T10:47:36.090Z,65.20
2018-07-12T10:48:36.000Z,66.27
2018-07-12T10:49:35.967Z,66.93
2018-07-12T10:50:35.881Z,67.35
2018-07-12T10:51:35.823Z,65.63
2018-07-12T10:52:35.724Z,63.58
2018-07-12T10:55:18.047Z,61.14
2018-07-12T10:56:17.941Z,61.41
2018-07-12T10:57:17.871Z,63.26
2018-07-12T11:00:00.030Z,65.27
2018-07-12T11:02:42.008Z,71.61
2018-07-12T11:03:41.951Z,71.28
2018-07-12T11:04:41.947Z,70.90
2018-07-12T11:05:41.919Z,71.58
2018-07-12T11:06:41.729Z,71.44
2018-07-12T11:07:41.700Z,71.44
2018-07-12T11:08:41.596Z,71.34
2018-07-12T11:09:41.546Z,70.99
2018-07-12T11:10:41.490Z,70.67
2018-07-12T11:11:41.412Z,67.70
2018-07-12T11:12:41.331Z,67.02
2018-07-12T11:13:41.269Z,66.34
2018-07-12T11:14:41.193Z,64.97
2018-07-12T11:15:41.187Z,61.21
2018-07-12T11:16:41.089Z,59.61
2018-07-12T11:17:40.982Z,61.43
2018-07-12T11:18:40.914Z,60.55
2018-07-12T11:19:40.882Z,60.46
2018-07-12T11:20:40.804Z,63.17
2018-07-12T11:21:40.747Z,65.37
2018-07-12T11:22:40.647Z,66.89
2018-07-12T11:23:40.612Z,67.37
2018-07-12T11:24:40.517Z,68.54
2018-07-12T11:25:40.465Z,68.89
2018-07-12T11:26:40.415Z,69.28
2018-07-12T11:27:40.360Z,68.60
2018-07-12T11:28:40.238Z,67.50
2018-07-12T11:29:40.254Z,64.65
2018-07-12T11:30:40.104Z,62.77
2018-07-12T11:31:41.060Z,62.67
2018-07-12T11:32:39.958Z,62.81
2018-07-12T11:33:39.913Z,62.77
2018-07-12T11:34:39.839Z,63.26
2018-07-12T11:35:39.782Z,62.18
2018-07-12T11:36:39.730Z,60.97
2018-07-12T11:39:21.545Z,57.52
2018-07-12T11:40:21.461Z,58.14
2018-07-12T11:41:21.460Z,58.34
2018-07-12T11:42:21.314Z,59.28
2018-07-12T11:43:21.246Z,60.17
2018-07-12T11:44:21.196Z,62.16
2018-07-12T11:45:21.139Z,64.43
2018-07-12T11:46:21.064Z,65.37
2018-07-12T11:47:20.999Z,66.63
2018-07-12T11:50:03.033Z,62.48
2018-07-12T11:52:45.178Z,60.46
2018-07-12T11:53:44.949Z,61.08
2018-07-12T11:54:44.921Z,59.74
2018-07-12T11:55:44.856Z,58.02
2018-07-12T11:56:44.746Z,57.04
2018-07-12T11:57:44.727Z,56.89
2018-07-12T11:58:44.621Z,58.64
2018-07-12T11:59:44.561Z,59.91
2018-07-12T12:00:44.494Z,60.17
2018-07-12T12:01:44.586Z,60.66
2018-07-12T12:02:44.364Z,62.06
2018-07-12T12:03:45.321Z,64.07
2018-07-12T12:04:44.267Z,64.91
2018-07-12T12:07:26.547Z,64.20
2018-07-12T12:08:26.466Z,63.09
2018-07-12T12:09:26.428Z,61.18
2018-07-12T12:10:26.336Z,61.76
2018-07-12T12:11:26.249Z,61.47
2018-07-12T12:12:26.335Z,62.08
2018-07-12T12:13:26.120Z,61.40
2018-07-12T12:14:26.084Z,60.56
2018-07-12T12:15:25.971Z,61.90
2018-07-12T12:18:08.054Z,63.03
2018-07-12T12:19:08.014Z,62.64
2018-07-12T12:20:07.919Z,61.15
2018-07-12T12:21:07.816Z,62.38
2018-07-12T12:22:07.758Z,62.68
2018-07-12T12:23:07.695Z,63.52
2018-07-12T12:24:07.618Z,64.11
2018-07-12T12:25:07.601Z,64.46
2018-07-12T12:26:07.470Z,66.56
2018-07-12T12:27:07.404Z,67.99
2018-07-12T12:28:07.478Z,68.96
2018-07-12T12:29:07.305Z,67.02
2018-07-12T12:30:07.179Z,66.34
2018-07-12T12:32:49.045Z,66.14
2018-07-12T12:33:49.004Z,67.11
2018-07-12T12:34:48.924Z,66.82
2018-07-12T12:35:48.845Z,67.05
2018-07-12T12:38:31.058Z,65.14
2018-07-12T12:39:31.003Z,64.30
2018-07-12T12:42:13.064Z,62.93
2018-07-12T12:44:55.064Z,62.87
2018-07-12T12:45:54.979Z,63.20
2018-07-12T12:46:54.918Z,62.64
2018-07-12T12:47:54.835Z,61.57
2018-07-12T12:48:54.773Z,61.87
2018-07-12T12:49:54.720Z,62.13
2018-07-12T12:50:54.681Z,61.83
2018-07-12T12:51:54.545Z,61.74
2018-07-12T12:52:54.482Z,61.38
2018-07-12T12:53:54.428Z,59.79
2018-07-12T12:54:54.319Z,59.11
2018-07-12T12:55:54.281Z,58.82
2018-07-12T12:56:54.182Z,58.43
2018-07-12T12:57:54.121Z,58.82
2018-07-12T12:58:54.049Z,59.41
2018-07-12T12:59:53.981Z,60.47
2018-07-12T13:00:53.906Z,59.50
2018-07-12T13:03:36.049Z,60.21
2018-07-12T13:04:35.983Z,61.08
2018-07-12T13:05:35.945Z,60.31
2018-07-12T13:06:35.854Z,60.15
2018-07-12T13:07:35.774Z,60.74
2018-07-12T13:08:35.716Z,61.48
2018-07-12T13:09:35.630Z,62.35
2018-07-12T13:10:35.571Z,62.07
2018-07-12T13:11:35.471Z,62.35
2018-07-12T13:12:35.402Z,61.71
2018-07-12T13:13:35.340Z,61.38
2018-07-12T13:14:35.271Z,62.42
2018-07-12T13:15:35.188Z,62.62
2018-07-12T13:16:35.145Z,63.01
2018-07-12T13:17:35.040Z,62.98
2018-07-12T13:18:34.990Z,62.39
2018-07-12T13:19:34.892Z,62.32
2018-07-12T13:20:34.897Z,61.84
2018-07-12T13:21:34.757Z,62.16
2018-07-12T13:22:34.719Z,61.19
2018-07-12T13:23:34.615Z,60.64
2018-07-12T13:24:34.546Z,60.15
2018-07-12T13:25:34.465Z,61.00
2018-07-12T13:26:34.435Z,60.44
2018-07-12T13:27:34.301Z,60.22
2018-07-12T13:28:34.247Z,60.12
2018-07-12T13:29:34.152Z,60.19
2018-07-12T13:32:16.095Z,60.05
2018-07-12T13:33:16.023Z,58.59
2018-07-12T13:34:15.932Z,59.08
2018-07-12T13:35:15.857Z,57.92
2018-07-12T13:36:15.791Z,59.54
2018-07-12T13:37:15.897Z,60.25
2018-07-12T13:38:15.877Z,59.95
2018-07-12T13:39:15.860Z,59.76
2018-07-12T13:40:15.770Z,60.08
2018-07-12T13:41:15.409Z,59.79
2018-07-12T13:42:15.380Z,59.95
2018-07-12T13:44:57.599Z,60.28
2018-07-12T13:45:57.526Z,60.41
2018-07-12T13:46:57.482Z,59.79
2018-07-12T13:47:57.383Z,58.75
2018-07-12T13:48:57.283Z,58.82
2018-07-12T13:49:57.229Z,58.50
2018-07-12T13:50:57.140Z,59.67
2018-07-12T13:51:57.097Z,59.44
2018-07-12T13:52:57.022Z,59.15
2018-07-12T13:53:56.915Z,60.19
2018-07-12T13:54:56.864Z,60.09
2018-07-12T13:55:56.783Z,60.00
2018-07-12T13:56:56.692Z,59.61
2018-07-12T13:57:57.668Z,60.00
2018-07-12T13:58:56.547Z,60.09
2018-07-12T13:59:56.509Z,59.97
2018-07-12T14:00:56.410Z,60.28
2018-07-12T14:01:56.352Z,59.92
2018-07-12T14:02:56.270Z,58.86
2018-07-12T14:03:57.221Z,58.31
2018-07-12T14:04:56.132Z,58.50
2018-07-12T14:05:56.042Z,57.69
2018-07-12T14:06:55.972Z,56.50
2018-07-12T14:07:55.894Z,57.37
2018-07-12T14:08:55.834Z,57.73
2018-07-12T14:09:55.779Z,58.61
2018-07-12T14:10:55.665Z,59.09
2018-07-12T14:11:55.602Z,58.80
2018-07-12T14:12:55.526Z,59.38
2018-07-12T14:13:55.462Z,58.70
2018-07-12T14:14:55.373Z,59.38
2018-07-12T14:15:55.428Z,59.67
2018-07-12T14:16:55.218Z,58.90
2018-07-12T14:19:37.116Z,58.73
2018-07-12T14:20:38.033Z,58.93
2018-07-12T14:21:36.927Z,58.54
2018-07-12T14:22:36.868Z,59.03
2018-07-12T14:23:36.784Z,58.64
2018-07-12T14:24:36.738Z,59.22
2018-07-12T14:25:36.643Z,59.03
2018-07-12T14:26:36.576Z,58.64
2018-07-12T14:27:36.492Z,58.83
2018-07-12T14:30:18.612Z,58.73
2018-07-12T14:31:18.518Z,58.54
2018-07-12T14:32:18.431Z,59.41
2018-07-12T14:33:18.385Z,59.87
2018-07-12T14:34:18.329Z,60.06
2018-07-12T14:35:18.257Z,59.97
2018-07-12T14:36:18.176Z,60.64
2018-07-12T14:37:18.070Z,60.91
2018-07-12T14:38:17.989Z,60.16
2018-07-12T14:41:00.103Z,60.00
2018-07-12T14:42:00.028Z,60.00
2018-07-12T14:42:59.951Z,59.61
2018-07-12T14:43:59.883Z,59.90
2018-07-12T14:44:59.791Z,59.80
2018-07-12T14:45:59.757Z,58.93
2018-07-12T14:46:59.731Z,59.05
2018-07-12T14:47:59.583Z,59.64
2018-07-12T14:48:59.504Z,59.05
2018-07-12T14:49:59.422Z,58.28
2018-07-12T14:50:59.396Z,57.92
2018-07-12T14:52:00.295Z,57.21
2018-07-12T14:52:59.205Z,57.21
2018-07-12T14:53:59.132Z,56.92
2018-07-12T14:54:59.059Z,57.04
2018-07-12T14:55:58.996Z,56.95
2018-07-12T14:56:58.942Z,56.75
2018-07-12T14:57:58.836Z,56.56
2018-07-12T14:58:58.751Z,56.16
2018-07-12T14:59:58.697Z,56.85
2018-07-12T15:00:58.636Z,56.16
2018-07-12T15:01:58.557Z,55.78
2018-07-12T15:02:58.504Z,54.80
2018-07-12T15:05:40.589Z,55.00
2018-07-12T15:06:40.581Z,55.29
2018-07-12T15:07:40.459Z,54.90
2018-07-12T15:08:40.429Z,55.27
2018-07-12T15:09:40.309Z,55.65
2018-07-12T15:10:40.236Z,55.75
2018-07-12T15:11:40.186Z,56.24
2018-07-12T15:14:22.102Z,56.16
2018-07-12T15:15:22.027Z,56.16
2018-07-12T15:16:22.007Z,56.16
2018-07-12T15:17:21.898Z,54.90
2018-07-12T15:18:21.879Z,55.19
2018-07-12T15:19:21.808Z,54.80
2018-07-12T15:20:21.667Z,55.19